Time;durP1;ratioP1;P1;durP2;ratioP2;P2;SDS_P1;SDS_P2;PMS_P1;PMS_P2;Temp;Humidity;BMP_temperature;BMP_pressure;BME280_temperature;BME280_humidity;BME280_pressure;Samples;Min_cycle;Max_cycle;Signal;HPM_P1;HPM_P2
2021/03/04 00:00:33;;;;;;;150.47;47.53;;;6.10;84.60;4.90;102309.00;;;;4995911;28;20151;-73
2021/03/04 00:03:00;;;;;;;199.10;52.13;;;6.10;84.80;5.00;102310.00;;;;4996753;28;20293;-73
2021/03/04 00:05:26;;;;;;;176.48;53.50;;;7.40;85.40;5.00;102307.00;;;;4991895;28;20049;-73
2021/03/04 00:07:53;;;;;;;200.80;53.53;;;6.20;84.90;5.00;102303.00;;;;4998944;28;20564;-73
2021/03/04 00:10:20;;;;;;;203.77;54.80;;;6.20;84.50;5.10;102301.00;;;;4996798;28;20224;-72
2021/03/04 00:12:48;;;;;;;195.10;53.03;;;6.20;85.30;5.10;102288.00;;;;4977266;28;20050;-73
2021/03/04 00:15:18;;;;;;;188.82;49.83;;;6.20;85.30;5.00;102286.00;;;;5010673;28;20104;-73
2021/03/04 00:17:45;;;;;;;197.18;54.42;;;6.20;86.00;4.90;102292.00;;;;4998313;28;20034;-73
2021/03/04 00:20:22;;;;;;;182.48;53.08;;;6.10;85.90;4.80;102304.00;;;;5009991;28;20061;-73
2021/03/04 00:22:48;;;;;;;162.77;50.92;;;6.10;85.40;4.90;102315.00;;;;5012304;28;20110;-73
2021/03/04 00:25:15;;;;;;;170.77;52.38;;;6.10;85.80;5.00;102315.00;;;;4959493;28;20062;-73
2021/03/04 00:27:41;;;;;;;223.02;60.72;;;6.10;85.60;5.00;102294.00;;;;4984799;28;20073;-73
2021/03/04 00:30:10;;;;;;;228.55;61.90;;;6.20;85.40;5.00;102285.00;;;;4981985;28;20035;-73
2021/03/04 00:32:36;;;;;;;266.73;70.03;;;6.10;85.00;4.90;102280.00;;;;4992787;28;20065;-73
2021/03/04 00:35:04;;;;;;;315.55;72.05;;;6.20;86.10;4.90;102287.00;;;;4977047;28;20408;-72
2021/03/04 00:37:29;;;;;;;252.63;67.95;;;6.10;86.10;4.90;102280.00;;;;4989718;28;20560;-73
2021/03/04 00:39:55;;;;;;;259.90;69.32;;;6.10;85.50;4.90;102284.00;;;;4982222;28;20057;-73
2021/03/04 00:42:22;;;;;;;231.85;64.32;;;6.10;85.30;4.90;102293.00;;;;4975820;28;20050;-73
2021/03/04 00:44:47;;;;;;;269.83;67.03;;;6.10;86.20;5.00;102273.00;;;;4972784;28;20167;-73
2021/03/04 00:47:13;;;;;;;286.70;67.22;;;6.20;85.30;5.00;102281.00;;;;4974450;28;20512;-73
2021/03/04 00:49:40;;;;;;;253.40;61.85;;;6.20;85.60;4.90;102276.00;;;;4990948;28;20046;-73
2021/03/04 00:52:07;;;;;;;220.50;59.58;;;6.10;87.00;4.90;102276.00;;;;4975325;28;20161;-73
2021/03/04 00:54:33;;;;;;;278.60;67.32;;;6.10;86.60;4.80;102276.00;;;;4976641;28;20542;-73
2021/03/04 00:56:58;;;;;;;236.75;63.35;;;6.10;86.90;4.90;102284.00;;;;4975807;28;20128;-73
2021/03/04 00:59:24;;;;;;;231.70;64.85;;;6.10;86.70;4.90;102285.00;;;;4978595;28;20046;-73
2021/03/04 01:01:50;;;;;;;260.65;64.57;;;6.10;87.00;4.90;102281.00;;;;4978399;28;20047;-73
2021/03/04 01:04:16;;;;;;;230.55;63.42;;;6.40;86.60;4.90;102273.00;;;;4969401;28;20046;-73
2021/03/04 01:06:42;;;;;;;249.50;65.03;;;6.10;86.70;4.90;102271.00;;;;4954155;28;23329;-73
2021/03/04 01:09:08;;;;;;;227.07;65.00;;;6.10;86.30;4.90;102266.00;;;;4974262;28;20038;-73
2021/03/04 01:11:34;;;;;;;220.20;62.15;;;6.10;86.30;4.90;102249.00;;;;4972968;28;20043;-73
2021/03/04 01:14:00;;;;;;;195.30;58.47;;;6.10;86.20;4.90;102244.00;;;;4978457;28;20136;-73
2021/03/04 01:16:26;;;;;;;211.98;60.22;;;6.10;86.20;5.00;102261.00;;;;4975035;28;20035;-73
2021/03/04 01:18:52;;;;;;;207.73;60.83;;;6.10;86.30;5.00;102259.00;;;;4973469;28;20042;-73
2021/03/04 01:21:18;;;;;;;170.55;55.63;;;6.20;86.30;5.10;102249.00;;;;4971230;28;20038;-73
2021/03/04 01:23:44;;;;;;;223.52;66.63;;;6.20;86.30;5.10;102238.00;;;;4972598;28;20164;-73
2021/03/04 01:26:11;;;;;;;199.20;59.75;;;6.20;86.20;5.10;102248.00;;;;4966818;28;20038;-73
2021/03/04 01:28:37;;;;;;;214.23;60.40;;;6.20;86.30;5.10;102237.00;;;;4985867;28;20170;-73
2021/03/04 01:31:03;;;;;;;220.80;62.05;;;6.20;87.40;5.00;102239.00;;;;4967914;28;20079;-73
2021/03/04 01:33:29;;;;;;;219.82;60.47;;;6.20;86.90;4.90;102243.00;;;;4973427;28;20042;-73
2021/03/04 01:35:55;;;;;;;224.40;64.03;;;6.10;86.70;4.90;102230.00;;;;4972403;28;20044;-73
2021/03/04 01:38:21;;;;;;;188.68;60.33;;;6.10;86.90;4.90;102220.00;;;;4978004;28;20054;-72
2021/03/04 01:40:47;;;;;;;203.80;63.65;;;6.10;86.40;4.90;102233.00;;;;4971216;28;20422;-73
2021/03/04 01:43:13;;;;;;;210.40;63.47;;;6.00;87.20;4.90;102235.00;;;;4981376;28;20045;-73
2021/03/04 01:45:39;;;;;;;202.45;65.55;;;6.10;87.10;4.90;102234.00;;;;4981094;28;20042;-73
2021/03/04 01:48:06;;;;;;;231.50;62.03;;;6.00;86.80;4.80;102212.00;;;;4971196;28;20061;-73
2021/03/04 01:50:32;;;;;;;230.95;64.53;;;6.00;87.20;4.80;102226.00;;;;4970828;28;20137;-73
2021/03/04 01:52:59;;;;;;;227.85;64.57;;;6.00;88.20;4.80;102225.00;;;;4969273;28;20531;-73
2021/03/04 01:55:25;;;;;;;232.40;67.45;;;6.00;87.10;4.70;102208.00;;;;4973045;28;20042;-73
2021/03/04 01:57:51;;;;;;;209.45;63.10;;;5.90;86.50;4.80;102212.00;;;;4979969;28;20177;-72
2021/03/04 02:00:20;;;;;;;245.40;71.22;;;6.00;87.30;4.80;102203.00;;;;4986325;28;20035;-73
2021/03/04 02:02:46;;;;;;;224.30;66.60;;;6.00;87.30;4.90;102205.00;;;;4977289;28;20760;-73
2021/03/04 02:05:15;;;;;;;260.60;69.18;;;6.10;87.30;4.90;102203.00;;;;4975928;28;20046;-73
2021/03/04 02:08:12;;;;;;;235.65;68.18;;;6.10;87.10;4.90;102202.00;;;;4969754;28;20504;-72
2021/03/04 02:10:55;;;;;;;244.45;65.47;;;6.10;86.50;5.00;102205.00;;;;4973018;28;20065;-73
2021/03/04 02:13:43;;;;;;;309.45;67.28;;;6.20;87.30;4.90;102202.00;;;;4973494;28;20137;-73
2021/03/04 02:16:20;;;;;;;298.92;67.50;;;6.20;86.90;4.80;102199.00;;;;4987598;28;20038;-73
2021/03/04 02:18:51;;;;;;;293.45;71.18;;;6.20;87.70;4.80;102193.00;;;;4988255;28;20722;-71
2021/03/04 02:21:37;;;;;;;270.02;70.18;;;6.10;86.20;4.80;102194.00;;;;4986663;28;20409;-72
2021/03/04 02:24:47;;;;;;;338.92;72.47;;;6.10;87.00;4.80;102191.00;;;;4974256;28;20490;-73
2021/03/04 02:27:19;;;;;;;333.67;72.05;;;6.00;86.50;4.70;102184.00;;;;4969792;28;20041;-73
2021/03/04 02:30:06;;;;;;;265.88;67.95;;;6.00;87.50;4.70;102192.00;;;;4957893;28;20456;-73
2021/03/04 02:32:34;;;;;;;287.35;70.63;;;6.00;87.70;4.70;102192.00;;;;4973047;28;20066;-73
2021/03/04 02:35:08;;;;;;;304.92;72.32;;;6.00;87.50;4.70;102178.00;;;;4936966;28;20878;-73
2021/03/04 02:37:43;;;;;;;240.35;68.47;;;5.90;87.90;4.70;102172.00;;;;4968688;28;20057;-73
2021/03/04 02:40:11;;;;;;;266.38;71.15;;;5.90;87.90;4.70;102163.00;;;;4945822;28;20042;-73
2021/03/04 02:42:40;;;;;;;227.25;66.68;;;6.00;87.20;4.80;102157.00;;;;4973664;28;20046;-73
2021/03/04 02:45:07;;;;;;;243.38;72.10;;;6.00;87.80;4.80;102159.00;;;;4971530;28;20042;-72
2021/03/04 02:47:34;;;;;;;229.38;67.93;;;6.00;86.90;4.90;102171.00;;;;4958692;28;20042;-73
2021/03/04 02:50:01;;;;;;;224.93;67.97;;;6.10;87.70;4.90;102185.00;;;;4989167;28;21142;-73
2021/03/04 02:52:28;;;;;;;241.45;71.85;;;6.10;86.70;4.90;102163.00;;;;4978134;28;20109;-73
2021/03/04 02:54:54;;;;;;;254.88;70.00;;;6.10;86.70;4.80;102167.00;;;;4984022;28;20054;-73
2021/03/04 02:57:21;;;;;;;243.38;67.35;;;6.10;87.40;4.80;102160.00;;;;4982214;28;20073;-73
2021/03/04 02:59:48;;;;;;;237.82;67.75;;;6.10;87.00;4.80;102167.00;;;;4965140;28;20053;-74
2021/03/04 03:02:16;;;;;;;239.45;68.30;;;6.00;87.20;4.80;102145.00;;;;4986629;28;20110;-73
2021/03/04 03:04:43;;;;;;;241.38;70.78;;;6.00;87.70;4.80;102138.00;;;;4972044;28;20149;-73
2021/03/04 03:07:10;;;;;;;252.20;68.78;;;6.00;88.90;4.80;102127.00;;;;4986807;28;20575;-74
2021/03/04 03:09:38;;;;;;;;;;;6.00;87.90;4.70;102115.00;;;;4963725;28;20085;-74
2021/03/04 03:12:05;;;;;;;205.95;63.25;;;5.90;88.70;4.70;102129.00;;;;4966859;28;20000;-73
2021/03/04 03:14:31;;;;;;;220.18;64.70;;;5.90;88.50;4.70;102116.00;;;;4966576;28;20073;-73
2021/03/04 03:16:58;;;;;;;233.73;68.32;;;5.90;87.70;4.70;102127.00;;;;4976038;28;20896;-73
2021/03/04 03:19:25;;;;;;;250.13;67.95;;;5.90;88.20;4.70;102125.00;;;;4969186;28;20053;-73
2021/03/04 03:21:52;;;;;;;197.38;65.00;;;5.90;88.60;4.70;102144.00;;;;4970573;28;20042;-73
2021/03/04 03:24:18;;;;;;;169.65;54.88;;;5.90;87.20;4.70;102134.00;;;;4968867;28;20042;-73
2021/03/04 03:26:45;;;;;;;218.52;68.15;;;5.90;88.20;4.80;102120.00;;;;4973733;28;20058;-73
2021/03/04 03:29:11;;;;;;;237.43;68.65;;;5.90;87.90;4.80;102117.00;;;;4970296;28;20034;-73
2021/03/04 03:31:40;;;;;;;265.17;72.90;;;6.00;87.90;4.70;102108.00;;;;4947715;28;20278;-73
2021/03/04 03:34:06;;;;;;;266.38;69.55;;;6.00;88.20;4.70;102109.00;;;;4981108;28;20053;-73
2021/03/04 03:36:35;;;;;;;260.30;71.53;;;5.90;88.60;4.70;102107.00;;;;4953264;28;20061;-74
2021/03/04 03:39:05;;;;;;;285.75;72.75;;;5.90;87.60;4.60;102106.00;;;;4965983;28;20046;-73
2021/03/04 03:41:38;;;;;;;329.15;79.20;;;5.80;89.60;4.60;102098.00;;;;4983001;28;20721;-73
2021/03/04 03:44:08;;;;;;;288.58;74.50;;;5.90;88.90;4.60;102086.00;;;;4968383;28;20046;-73
2021/03/04 03:46:36;;;;;;;268.70;71.93;;;5.80;88.00;4.60;102087.00;;;;4968068;28;21075;-73
2021/03/04 03:49:04;;;;;;;;;;;5.80;88.40;4.60;102083.00;;;;4968706;28;20061;-73
2021/03/04 03:51:32;;;;;;;278.77;69.87;;;5.80;89.30;4.70;102083.00;;;;4985023;28;20380;-73
2021/03/04 03:54:00;;;;;;;285.80;72.07;;;5.90;88.20;4.70;102083.00;;;;4981652;28;20053;-73
2021/03/04 03:56:30;;;;;;;319.35;75.70;;;5.90;87.50;4.60;102082.00;;;;4971439;28;20042;-73
2021/03/04 03:58:58;;;;;;;291.65;74.32;;;5.60;88.50;4.60;102090.00;;;;4973656;28;20046;-73
2021/03/04 04:01:27;;;;;;;241.43;63.83;;;5.90;88.80;4.60;102098.00;;;;4981975;28;20137;-73
2021/03/04 04:03:58;;;;;;;230.38;66.15;;;5.80;88.50;4.70;102095.00;;;;4965231;28;20062;-73
2021/03/04 04:06:27;;;;;;;281.92;69.68;;;5.90;88.60;4.70;102103.00;;;;4981635;28;20520;-73
2021/03/04 04:08:54;;;;;;;277.83;67.80;;;5.90;88.50;4.70;102113.00;;;;4958387;28;20168;-73
2021/03/04 04:11:24;;;;;;;282.63;71.35;;;5.90;88.80;4.60;102133.00;;;;4973179;28;20038;-73
2021/03/04 04:13:50;;;;;;;207.55;59.70;;;5.90;88.90;4.60;102118.00;;;;4985192;28;20150;-73
2021/03/04 04:16:17;;;;;;;226.60;65.28;;;8.10;89.90;4.70;102111.00;;;;4986290;28;20046;-73
2021/03/04 04:18:47;;;;;;;230.02;65.57;;;5.90;88.70;4.70;102110.00;;;;4963739;28;20034;-73
2021/03/04 04:21:16;;;;;;;235.27;65.70;;;5.90;88.60;4.70;102098.00;;;;4971768;28;20200;-73
2021/03/04 04:23:42;;;;;;;208.88;61.15;;;5.90;88.50;4.70;102080.00;;;;4979264;28;20049;-73
2021/03/04 04:26:09;;;;;;;237.23;60.00;;;5.90;88.40;4.70;102094.00;;;;5008285;28;20042;-73
2021/03/04 04:28:35;;;;;;;216.17;60.80;;;5.90;88.70;4.60;102068.00;;;;5009053;28;20296;-73
2021/03/04 04:31:01;;;;;;;182.40;56.65;;;5.90;88.70;4.60;102072.00;;;;5001220;28;20048;-73
2021/03/04 04:33:27;;;;;;;194.63;55.88;;;6.30;89.30;4.60;102077.00;;;;5006351;28;20050;-73
2021/03/04 04:35:53;;;;;;;211.32;59.83;;;5.80;88.80;4.60;102082.00;;;;4989355;28;20034;-73
2021/03/04 04:38:19;;;;;;;202.70;55.67;;;5.80;88.80;4.50;102068.00;;;;5009394;28;20034;-74
2021/03/04 04:40:45;;;;;;;194.93;56.30;;;5.70;87.90;4.50;102069.00;;;;4993457;28;20496;-73
2021/03/04 04:43:11;;;;;;;160.00;53.42;;;5.70;88.80;4.60;102068.00;;;;4986693;28;20566;-73
2021/03/04 04:45:37;;;;;;;151.43;48.83;;;5.80;88.90;4.60;102062.00;;;;5010380;28;20050;-73
2021/03/04 04:48:04;;;;;;;155.13;50.55;;;5.80;88.90;4.60;102066.00;;;;5002277;28;20403;-71
2021/03/04 04:50:30;;;;;;;166.33;54.03;;;5.90;88.20;4.70;102064.00;;;;4994994;28;20049;-73
2021/03/04 04:52:56;;;;;;;187.00;56.95;;;5.80;88.80;4.80;102057.00;;;;4991244;28;20038;-73
2021/03/04 04:55:22;;;;;;;204.63;58.65;;;5.90;88.00;4.80;102053.00;;;;4993480;28;20069;-71
2021/03/04 04:57:48;;;;;;;154.17;51.03;;;6.50;89.00;4.80;102072.00;;;;4995227;28;20201;-71
2021/03/04 05:00:15;;;;;;;191.07;57.45;;;6.00;87.80;4.80;102071.00;;;;4994602;28;20735;-71
2021/03/04 05:02:41;;;;;;;196.77;58.15;;;6.00;88.70;4.80;102065.00;;;;5007458;28;20041;-72
2021/03/04 05:05:08;;;;;;;196.50;59.38;;;6.00;88.60;4.80;102073.00;;;;5007709;28;20042;-72
2021/03/04 05:07:35;;;;;;;167.80;53.88;;;6.00;88.70;4.80;102058.00;;;;4976755;28;20089;-72
2021/03/04 05:10:06;;;;;;;203.48;59.90;;;6.00;87.70;4.80;102053.00;;;;5006358;28;20053;-71
2021/03/04 05:12:33;;;;;;;214.68;56.38;;;6.00;87.90;4.80;102049.00;;;;4992085;28;20173;-72
2021/03/04 05:14:59;;;;;;;214.40;56.40;;;6.00;88.50;4.70;102048.00;;;;5008849;28;20057;-72
2021/03/04 05:17:25;;;;;;;234.75;57.95;;;6.00;88.90;4.70;102044.00;;;;4994685;28;20128;-72
2021/03/04 05:19:50;;;;;;;220.73;56.65;;;5.90;89.30;4.60;102033.00;;;;4999995;28;20650;-71
2021/03/04 05:22:17;;;;;;;209.98;58.22;;;5.90;89.30;4.60;102038.00;;;;4996482;28;20049;-71
2021/03/04 05:24:43;;;;;;;218.73;58.70;;;5.90;89.10;4.60;102031.00;;;;4992706;28;20045;-72
2021/03/04 05:27:09;;;;;;;256.20;57.55;;;5.80;88.70;4.60;102027.00;;;;4992770;28;20042;-72
2021/03/04 05:29:35;;;;;;;213.32;53.95;;;5.70;88.50;4.50;102016.00;;;;5008588;28;20612;-71
2021/03/04 05:32:01;;;;;;;227.43;54.45;;;6.50;89.70;4.50;102023.00;;;;4993111;28;20041;-72
2021/03/04 05:34:27;;;;;;;250.23;55.10;;;5.70;90.00;4.40;102017.00;;;;4993986;28;20651;-72
2021/03/04 05:36:53;;;;;;;231.00;55.70;;;5.60;88.90;4.40;102015.00;;;;5004716;28;20042;-71
2021/03/04 05:39:19;;;;;;;243.95;57.13;;;5.60;89.50;4.40;102024.00;;;;4989558;28;20808;-71
2021/03/04 05:41:44;;;;;;;211.27;55.67;;;5.60;89.10;4.40;102028.00;;;;4995412;28;20046;-72
2021/03/04 05:44:11;;;;;;;201.27;53.17;;;5.70;89.70;4.50;102037.00;;;;4985411;28;20173;-72
2021/03/04 05:46:37;;;;;;;226.98;55.17;;;5.70;89.60;4.40;102043.00;;;;5011496;28;20046;-72
2021/03/04 05:49:06;;;;;;;217.65;53.15;;;5.70;89.80;4.30;102035.00;;;;4992207;28;20503;-71
2021/03/04 05:51:37;;;;;;;200.85;47.65;;;5.60;89.50;4.40;102037.00;;;;4980418;28;20535;-72
2021/03/04 05:54:06;;;;;;;215.52;47.63;;;5.60;89.60;4.30;102038.00;;;;4995063;28;20050;-72
2021/03/04 05:56:35;;;;;;;196.48;49.42;;;5.60;88.80;4.30;102041.00;;;;5006894;28;20054;-72
2021/03/04 05:59:01;;;;;;;211.20;46.33;;;5.50;89.50;4.20;102027.00;;;;4990451;28;20516;-72
2021/03/04 06:01:29;;;;;;;201.75;48.90;;;5.50;90.00;4.30;102028.00;;;;4998330;28;20053;-72
2021/03/04 06:03:55;;;;;;;253.98;50.88;;;5.50;90.00;4.30;102027.00;;;;5011094;28;20041;-72
2021/03/04 06:06:21;;;;;;;234.13;49.58;;;5.50;90.00;4.20;102013.00;;;;4991882;28;20045;-72
2021/03/04 06:08:47;;;;;;;286.13;47.92;;;5.40;90.00;4.20;102020.00;;;;4991010;28;20556;-72
2021/03/04 06:11:13;;;;;;;203.80;49.67;;;5.40;90.10;4.20;102015.00;;;;4970881;28;20141;-72
2021/03/04 06:13:39;;;;;;;246.88;46.45;;;5.40;90.00;4.20;102020.00;;;;4975398;28;20073;-72
2021/03/04 06:16:05;;;;;;;233.98;46.85;;;5.40;89.80;4.20;102032.00;;;;4992856;28;20129;-72
2021/03/04 06:18:42;;;;;;;234.67;50.13;;;5.40;90.10;4.10;102029.00;;;;4975551;28;20116;-72
2021/03/04 06:21:23;;;;;;;280.80;50.67;;;5.30;90.10;4.00;102026.00;;;;4991885;28;20080;-72
2021/03/04 06:23:51;;;;;;;310.77;56.38;;;5.30;90.60;3.90;102033.00;;;;4988193;28;20038;-72
2021/03/04 06:26:37;;;;;;;198.25;50.28;;;5.20;90.00;4.00;102015.00;;;;4984149;28;20133;-72
2021/03/04 06:29:18;;;;;;;282.10;56.25;;;4.60;90.10;4.00;102022.00;;;;5007201;28;20045;-73
2021/03/04 06:31:46;;;;;;;215.75;53.50;;;5.30;90.30;4.00;102039.00;;;;4985109;28;20054;-72
2021/03/04 06:34:19;;;;;;;219.93;51.15;;;5.30;90.30;4.10;102030.00;;;;4974359;28;20034;-72
2021/03/04 06:37:12;;;;;;;214.30;49.30;;;5.30;90.30;4.10;102038.00;;;;4969925;28;20084;-73
2021/03/04 06:39:44;;;;;;;158.95;42.22;;;5.20;90.00;4.10;102037.00;;;;4972263;28;20081;-73
2021/03/04 06:42:11;;;;;;;143.15;38.47;;;5.40;89.90;4.20;102025.00;;;;4991182;28;20038;-73
2021/03/04 06:44:48;;;;;;;141.57;41.72;;;5.40;90.20;4.20;102039.00;;;;4972507;28;20047;-72
2021/03/04 06:47:25;;;;;;;125.22;38.38;;;5.40;89.90;4.20;102029.00;;;;4956137;28;20050;-73
2021/03/04 06:49:52;;;;;;;108.07;36.15;;;5.40;89.70;4.20;102049.00;;;;4976925;28;20059;-69
2021/03/04 06:52:36;;;;;;;;;;;5.50;90.10;4.20;102049.00;;;;4971982;28;20766;-69
2021/03/04 06:55:13;;;;;;;107.55;33.83;;;5.50;90.00;4.20;102050.00;;;;4978969;28;20681;-69
2021/03/04 06:57:40;;;;;;;105.30;32.73;;;5.50;90.10;4.20;102062.00;;;;5008276;28;20952;-69
2021/03/04 07:00:19;;;;;;;113.95;33.58;;;5.50;90.00;4.20;102069.00;;;;5009669;28;20721;-70
2021/03/04 07:02:58;;;;;;;111.65;32.72;;;5.40;89.40;4.10;102058.00;;;;5004998;28;20146;-70
2021/03/04 07:05:25;;;;;;;111.35;32.67;;;5.40;90.10;4.20;102058.00;;;;4990604;28;20080;-70
2021/03/04 07:07:54;;;;;;;116.07;33.17;;;5.40;90.10;4.20;102058.00;;;;4993782;28;20038;-70
2021/03/04 07:10:24;;;;;;;109.80;33.80;;;5.40;89.40;4.20;102056.00;;;;5008150;28;20069;-70
2021/03/04 07:12:50;;;;;;;112.57;34.58;;;5.40;89.70;4.20;102058.00;;;;4978149;28;20128;-69
2021/03/04 07:15:21;;;;;;;133.70;35.20;;;5.40;90.10;4.20;102041.00;;;;4991927;28;20053;-69
2021/03/04 07:17:49;;;;;;;142.10;35.47;;;5.40;90.00;4.10;102039.00;;;;5011272;28;20508;-69
2021/03/04 07:20:18;;;;;;;140.80;36.92;;;5.40;90.20;4.10;102037.00;;;;4992309;28;20057;-69
2021/03/04 07:22:47;;;;;;;140.38;36.22;;;5.40;89.60;4.10;102043.00;;;;4986398;28;20432;-69
2021/03/04 07:25:15;;;;;;;148.65;37.60;;;5.40;90.40;4.10;102035.00;;;;4973581;28;20493;-69
2021/03/04 07:27:41;;;;;;;145.52;37.10;;;4.70;90.10;4.00;102034.00;;;;4997468;28;20057;-69
2021/03/04 07:30:10;;;;;;;144.73;36.58;;;5.30;90.30;4.00;102035.00;;;;4996252;28;20049;-70
2021/03/04 07:32:36;;;;;;;165.88;38.00;;;5.30;90.50;4.00;102037.00;;;;4994106;28;20052;-69
2021/03/04 07:35:12;;;;;;;195.40;38.30;;;5.30;90.40;4.00;102042.00;;;;4987138;28;20127;-70
2021/03/04 07:37:44;;;;;;;218.43;42.20;;;5.20;90.50;3.90;102043.00;;;;4993039;28;20049;-70
2021/03/04 07:40:12;;;;;;;311.25;51.25;;;5.10;90.30;3.90;102046.00;;;;4991114;28;20042;-70
2021/03/04 07:42:39;;;;;;;334.88;56.10;;;5.20;90.20;3.80;102036.00;;;;4988180;28;20046;-70
2021/03/04 07:45:18;;;;;;;319.23;51.85;;;5.10;91.00;3.80;102055.00;;;;4994222;28;20041;-70
2021/03/04 07:47:44;;;;;;;328.25;53.40;;;5.10;90.70;3.80;102045.00;;;;4979615;28;20073;-70
2021/03/04 07:50:20;;;;;;;367.83;55.05;;;5.00;91.00;3.80;102049.00;;;;4991213;28;20133;-70
2021/03/04 07:52:46;;;;;;;311.95;53.10;;;5.00;90.60;3.80;102036.00;;;;4988104;28;20501;-70
2021/03/04 07:55:15;;;;;;;311.95;52.72;;;5.00;91.30;3.80;102031.00;;;;5004911;28;20049;-70
2021/03/04 07:57:46;;;;;;;284.63;49.30;;;5.00;91.30;3.70;102027.00;;;;5001694;28;20042;-70
2021/03/04 08:00:15;;;;;;;269.23;49.30;;;5.00;91.20;3.60;102021.00;;;;5007040;28;20069;-71
2021/03/04 08:02:42;;;;;;;253.68;46.17;;;4.90;91.30;3.60;102023.00;;;;4989430;28;20052;-70
2021/03/04 08:05:35;;;;;;;;;;;4.90;91.10;3.60;102010.00;;;;4997063;28;20476;-70
2021/03/04 08:08:17;;;;;;;233.15;43.63;;;4.90;91.10;3.60;102012.00;;;;4993989;28;19926;-71
2021/03/04 08:10:56;;;;;;;249.02;42.78;;;4.90;90.80;3.60;102013.00;;;;5010680;28;20046;-71
2021/03/04 08:13:36;;;;;;;;;;;4.90;91.30;3.60;102012.00;;;;4986722;28;20097;-71
2021/03/04 08:16:12;;;;;;;271.50;48.33;;;4.80;91.90;3.60;102009.00;;;;5004909;28;19983;-71
2021/03/04 08:18:38;;;;;;;246.35;43.45;;;4.90;91.70;3.60;102010.00;;;;4993349;28;20675;-70
2021/03/04 08:21:06;;;;;;;239.70;41.07;;;4.90;91.10;3.60;102009.00;;;;4996970;28;20669;-70
2021/03/04 08:23:31;;;;;;;;;;;4.90;91.00;3.60;102005.00;;;;4995730;28;20042;-71
2021/03/04 08:26:00;;;;;;;242.88;40.58;;;4.90;92.00;3.50;101998.00;;;;5012723;28;20004;-71
2021/03/04 08:28:29;;;;;;;240.32;44.10;;;4.90;91.30;3.50;101990.00;;;;5011062;28;20050;-70
2021/03/04 08:31:05;;;;;;;216.02;42.65;;;4.80;91.20;3.50;101995.00;;;;5009714;28;20046;-71
2021/03/04 08:33:31;;;;;;;167.10;32.25;;;4.90;91.70;3.50;101991.00;;;;5002728;28;20062;-71
2021/03/04 08:35:59;;;;;;;164.88;34.40;;;4.80;91.90;3.50;101991.00;;;;4976682;28;20027;-70
2021/03/04 08:38:26;;;;;;;145.95;33.95;;;4.70;91.70;3.40;101996.00;;;;4978606;28;20074;-71
2021/03/04 08:40:59;;;;;;;169.68;39.25;;;4.70;92.10;3.40;102009.00;;;;4959007;28;20110;-70
2021/03/04 08:43:28;;;;;;;166.23;36.55;;;4.70;91.80;3.40;101999.00;;;;4974916;28;20100;-71
2021/03/04 08:46:03;;;;;;;186.98;39.85;;;4.80;91.70;3.40;102008.00;;;;4976985;28;20046;-70
2021/03/04 08:48:30;;;;;;;175.48;38.42;;;4.70;91.30;3.50;102010.00;;;;4977711;28;20042;-71
2021/03/04 08:51:03;;;;;;;134.13;33.60;;;5.70;91.70;3.40;102009.00;;;;4975839;28;20117;-71
2021/03/04 08:53:31;;;;;;;147.80;36.90;;;4.70;91.50;3.40;102007.00;;;;4974781;28;20315;-70
2021/03/04 08:56:00;;;;;;;158.40;36.90;;;4.70;91.20;3.50;102011.00;;;;4975271;28;20038;-71
2021/03/04 08:58:29;;;;;;;148.48;37.92;;;4.70;91.30;3.50;102016.00;;;;4975035;28;20045;-71
2021/03/04 09:01:03;;;;;;;156.90;36.58;;;4.80;91.30;3.50;101998.00;;;;4994799;28;20069;-71
2021/03/04 09:03:38;;;;;;;125.70;32.95;;;4.80;91.40;3.50;102008.00;;;;4992332;28;20049;-71
2021/03/04 09:06:09;;;;;;;114.85;33.97;;;4.80;91.10;3.50;102007.00;;;;5007461;28;20053;-71
2021/03/04 09:09:02;;;;;;;121.97;30.55;;;4.80;91.30;3.50;101995.00;;;;4994519;28;20595;-71
2021/03/04 09:11:36;;;;;;;125.50;33.55;;;4.80;91.40;3.50;102000.00;;;;4999768;28;20041;-71
2021/03/04 09:14:06;;;;;;;130.43;33.83;;;4.80;91.00;3.50;101996.00;;;;5003048;28;20504;-71
2021/03/04 09:16:51;;;;;;;119.80;32.38;;;4.80;91.30;3.50;101983.00;;;;5008326;28;20444;-72
2021/03/04 09:19:34;;;;;;;139.52;34.97;;;4.70;91.40;3.50;101990.00;;;;5005459;28;20140;-70
2021/03/04 09:22:05;;;;;;;129.48;34.90;;;4.80;91.70;3.60;101985.00;;;;4998400;28;20073;-70
2021/03/04 09:24:33;;;;;;;127.88;32.53;;;4.80;91.20;3.60;101984.00;;;;4998236;28;20133;-71
2021/03/04 09:27:08;;;;;;;132.55;34.15;;;4.80;91.20;3.70;101981.00;;;;4978872;28;20049;-70
2021/03/04 09:29:41;;;;;;;119.10;31.80;;;4.90;91.20;3.70;101986.00;;;;4998800;28;20192;-69
2021/03/04 09:32:08;;;;;;;114.88;31.98;;;5.00;90.80;3.80;101980.00;;;;4996154;28;20038;-71
2021/03/04 09:34:42;;;;;;;100.35;29.42;;;5.00;91.00;3.90;101977.00;;;;5008379;28;20088;-70
2021/03/04 09:37:15;;;;;;;107.15;30.65;;;5.10;91.10;3.90;101972.00;;;;4999581;28;20057;-70
2021/03/04 09:39:50;;;;;;;106.13;29.65;;;5.10;90.80;3.90;101972.00;;;;5008795;28;20065;-70
2021/03/04 09:42:19;;;;;;;107.25;31.75;;;5.10;90.90;3.90;101979.00;;;;5010935;28;20049;-70
2021/03/04 09:44:56;;;;;;;101.95;29.73;;;5.10;91.10;3.90;101970.00;;;;4998692;28;20052;-71
2021/03/04 09:47:28;;;;;;;99.22;27.35;;;5.10;90.90;3.80;101988.00;;;;5012352;28;20069;-70
2021/03/04 09:49:55;;;;;;;112.55;30.30;;;5.10;91.30;3.80;101984.00;;;;4998764;28;20053;-72
2021/03/04 09:52:23;;;;;;;;;;;5.00;91.40;3.70;101979.00;;;;4995931;28;20091;-71
2021/03/04 09:54:50;;;;;;;102.30;28.90;;;5.00;91.20;3.80;101979.00;;;;4994651;28;19925;-70
2021/03/04 09:57:19;;;;;;;106.25;29.77;;;5.10;90.70;3.80;101992.00;;;;5010355;28;20151;-71
2021/03/04 09:59:50;;;;;;;108.85;30.25;;;5.10;91.30;3.90;102002.00;;;;5009969;28;20041;-70
2021/03/04 10:02:17;;;;;;;108.28;31.40;;;5.10;90.70;3.90;101998.00;;;;4994877;28;20209;-70
2021/03/04 10:05:00;;;;;;;;;;;5.10;90.50;3.90;102000.00;;;;4995188;28;20042;-71
2021/03/04 10:07:30;;;;;;;114.63;28.67;;;5.10;91.10;3.90;102010.00;;;;4995871;28;19939;-70
2021/03/04 10:09:57;;;;;;;109.22;28.88;;;5.10;90.90;3.90;102006.00;;;;5009317;28;20045;-70
2021/03/04 10:12:23;;;;;;;112.85;30.65;;;5.10;90.70;3.90;102007.00;;;;5008547;28;20111;-70
2021/03/04 10:14:55;;;;;;;139.60;35.08;;;5.10;91.10;3.90;102011.00;;;;4996426;28;20026;-70
2021/03/04 10:17:24;;;;;;;110.88;30.00;;;5.20;90.90;3.90;102006.00;;;;4999424;28;20034;-70
2021/03/04 10:19:50;;;;;;;108.40;30.85;;;5.10;90.60;3.90;102005.00;;;;5007575;28;20041;-71
2021/03/04 10:22:16;;;;;;;108.82;32.15;;;5.20;91.00;3.90;102011.00;;;;5005291;28;20038;-72
2021/03/04 10:24:42;;;;;;;109.22;30.77;;;5.10;90.70;3.90;102005.00;;;;4975585;28;20100;-71
2021/03/04 10:27:08;;;;;;;124.72;30.58;;;5.20;91.10;4.00;102006.00;;;;5005018;28;20041;-71
2021/03/04 10:29:37;;;;;;;111.63;28.42;;;5.20;91.00;3.90;102006.00;;;;4971973;28;20113;-70
2021/03/04 10:32:04;;;;;;;132.80;32.47;;;5.10;90.60;3.90;102010.00;;;;4990892;28;20038;-71
2021/03/04 10:34:30;;;;;;;109.57;30.10;;;5.10;91.00;3.80;102000.00;;;;4974607;28;20050;-71
2021/03/04 10:36:55;;;;;;;109.50;28.98;;;5.20;91.00;3.90;102012.00;;;;4973679;28;20045;-71
2021/03/04 10:39:22;;;;;;;109.93;30.67;;;5.10;90.70;3.90;102001.00;;;;4974027;28;20038;-70
2021/03/04 10:41:48;;;;;;;110.30;29.70;;;5.10;90.60;3.90;101997.00;;;;4972262;28;20076;-69
2021/03/04 10:44:16;;;;;;;115.95;29.90;;;5.10;91.00;3.90;102000.00;;;;4975573;28;20301;-70
2021/03/04 10:46:42;;;;;;;107.18;28.38;;;5.10;91.00;3.90;101995.00;;;;4973131;28;20050;-71
2021/03/04 10:49:08;;;;;;;104.72;29.25;;;5.20;91.00;3.90;102004.00;;;;4977214;28;20080;-71
2021/03/04 10:51:35;;;;;;;115.85;29.73;;;5.20;91.20;3.90;102002.00;;;;4972788;28;20104;-70